sensor_id;sensor_type;location;lat;lon;timestamp;temperature;humidity
63537;DHT22;49686;51.880;5.632;2023-03-12T00:02:24;-0.20;99.90
63537;DHT22;49686;51.880;5.632;2023-03-12T00:04:50;-0.20;99.90
63537;DHT22;49686;51.880;5.632;2023-03-12T00:07:17;-0.10;99.90
63537;DHT22;49686;51.880;5.632;2023-03-12T00:09:45;0.00;99.90
63537;DHT22;49686;51.880;5.632;2023-03-12T00:12:12;0.00;99.90
63537;DHT22;49686;51.880;5.632;2023-03-12T00:14:39;0.00;99.90
63537;DHT22;49686;51.880;5.632;2023-03-12T00:17:06;0.00;99.90
63537;DHT22;49686;51.880;5.632;2023-03-12T00:19:32;0.00;99.90
63537;DHT22;49686;51.880;5.632;2023-03-12T00:21:59;0.00;99.90
63537;DHT22;49686;51.880;5.632;2023-03-12T00:24:26;0.00;99.90
63537;DHT22;49686;51.880;5.632;2023-03-12T00:26:54;0.00;99.90
63537;DHT22;49686;51.880;5.632;2023-03-12T00:29:21;0.00;99.90
63537;DHT22;49686;51.880;5.632;2023-03-12T00:31:48;0.00;99.90
63537;DHT22;49686;51.880;5.632;2023-03-12T00:34:15;-0.10;99.90
63537;DHT22;49686;51.880;5.632;2023-03-12T00:36:41;-0.10;99.90
63537;DHT22;49686;51.880;5.632;2023-03-12T00:39:09;-0.20;99.90
63537;DHT22;49686;51.880;5.632;2023-03-12T00:41:35;-0.20;99.90
63537;DHT22;49686;51.880;5.632;2023-03-12T00:44:04;-0.20;99.90
63537;DHT22;49686;51.880;5.632;2023-03-12T00:46:30;-0.20;99.90
63537;DHT22;49686;51.880;5.632;2023-03-12T00:48:57;-0.20;99.90
63537;DHT22;49686;51.880;5.632;2023-03-12T00:51:24;-0.30;99.90
63537;DHT22;49686;51.880;5.632;2023-03-12T00:53:51;-0.30;99.90
63537;DHT22;49686;51.880;5.632;2023-03-12T00:56:18;-0.30;99.90
63537;DHT22;49686;51.880;5.632;2023-03-12T00:58:44;-0.30;99.90
63537;DHT22;49686;51.880;5.632;2023-03-12T01:01:12;-0.40;99.90
63537;DHT22;49686;51.880;5.632;2023-03-12T01:03:39;-0.40;99.90
63537;DHT22;49686;51.880;5.632;2023-03-12T01:06:06;-0.40;99.90
63537;DHT22;49686;51.880;5.632;2023-03-12T01:08:33;-0.30;99.90
63537;DHT22;49686;51.880;5.632;2023-03-12T01:11:00;-0.30;99.90
63537;DHT22;49686;51.880;5.632;2023-03-12T01:13:27;-0.30;99.90
63537;DHT22;49686;51.880;5.632;2023-03-12T01:15:54;-0.30;99.90
63537;DHT22;49686;51.880;5.632;2023-03-12T01:18:22;-0.30;99.90
63537;DHT22;49686;51.880;5.632;2023-03-12T01:20:49;-0.30;99.90
63537;DHT22;49686;51.880;5.632;2023-03-12T01:23:16;-0.30;99.90
63537;DHT22;49686;51.880;5.632;2023-03-12T01:25:43;-0.30;99.90
63537;DHT22;49686;51.880;5.632;2023-03-12T01:28:10;-0.30;99.90
63537;DHT22;49686;51.880;5.632;2023-03-12T01:30:37;-0.30;99.90
63537;DHT22;49686;51.880;5.632;2023-03-12T01:33:03;-0.40;99.90
63537;DHT22;49686;51.880;5.632;2023-03-12T01:35:35;-0.40;99.90
63537;DHT22;49686;51.880;5.632;2023-03-12T01:38:02;-0.40;99.90
63537;DHT22;49686;51.880;5.632;2023-03-12T01:40:31;-0.40;99.90
63537;DHT22;49686;51.880;5.632;2023-03-12T01:43:13;-0.30;99.90
63537;DHT22;49686;51.880;5.632;2023-03-12T01:46:03;-0.40;99.90
63537;DHT22;49686;51.880;5.632;2023-03-12T01:48:35;-0.40;99.90
63537;DHT22;49686;51.880;5.632;2023-03-12T01:51:05;-0.40;99.90
63537;DHT22;49686;51.880;5.632;2023-03-12T01:53:34;-0.30;99.90
63537;DHT22;49686;51.880;5.632;2023-03-12T01:56:04;-0.30;99.90
63537;DHT22;49686;51.880;5.632;2023-03-12T01:58:34;-0.30;99.90
63537;DHT22;49686;51.880;5.632;2023-03-12T02:01:01;-0.20;99.90
63537;DHT22;49686;51.880;5.632;2023-03-12T02:03:29;-0.20;99.90
63537;DHT22;49686;51.880;5.632;2023-03-12T02:06:01;-0.20;99.90
63537;DHT22;49686;51.880;5.632;2023-03-12T02:08:29;-0.20;99.90
63537;DHT22;49686;51.880;5.632;2023-03-12T02:10:56;-0.30;99.90
63537;DHT22;49686;51.880;5.632;2023-03-12T02:13:23;-0.20;99.90
63537;DHT22;49686;51.880;5.632;2023-03-12T02:15:50;-0.20;99.90
63537;DHT22;49686;51.880;5.632;2023-03-12T02:18:18;-0.10;99.90
63537;DHT22;49686;51.880;5.632;2023-03-12T02:20:49;-0.20;99.90
63537;DHT22;49686;51.880;5.632;2023-03-12T02:23:26;-0.10;99.90
63537;DHT22;49686;51.880;5.632;2023-03-12T02:25:55;-0.10;99.90
63537;DHT22;49686;51.880;5.632;2023-03-12T02:28:26;-0.10;99.90
63537;DHT22;49686;51.880;5.632;2023-03-12T02:30:56;0.00;99.90
63537;DHT22;49686;51.880;5.632;2023-03-12T02:33:24;0.00;99.90
63537;DHT22;49686;51.880;5.632;2023-03-12T02:35:51;0.00;99.90
63537;DHT22;49686;51.880;5.632;2023-03-12T02:38:36;0.00;99.90
63537;DHT22;49686;51.880;5.632;2023-03-12T02:41:11;0.10;99.90
63537;DHT22;49686;51.880;5.632;2023-03-12T02:43:38;0.10;99.90
63537;DHT22;49686;51.880;5.632;2023-03-12T02:46:05;0.10;99.90
63537;DHT22;49686;51.880;5.632;2023-03-12T02:48:33;0.10;99.90
63537;DHT22;49686;51.880;5.632;2023-03-12T02:51:00;0.10;99.90
63537;DHT22;49686;51.880;5.632;2023-03-12T02:53:27;0.10;99.90
63537;DHT22;49686;51.880;5.632;2023-03-12T02:55:53;0.20;99.90
63537;DHT22;49686;51.880;5.632;2023-03-12T02:58:22;0.20;99.90
63537;DHT22;49686;51.880;5.632;2023-03-12T03:00:48;0.10;99.90
63537;DHT22;49686;51.880;5.632;2023-03-12T03:03:15;0.20;99.90
63537;DHT22;49686;51.880;5.632;2023-03-12T03:05:42;0.20;99.90
63537;DHT22;49686;51.880;5.632;2023-03-12T03:08:09;0.20;99.90
63537;DHT22;49686;51.880;5.632;2023-03-12T03:10:36;0.30;99.90
63537;DHT22;49686;51.880;5.632;2023-03-12T03:13:02;0.30;99.90
63537;DHT22;49686;51.880;5.632;2023-03-12T03:15:31;0.30;99.90
63537;DHT22;49686;51.880;5.632;2023-03-12T03:17:57;0.30;99.90
63537;DHT22;49686;51.880;5.632;2023-03-12T03:20:24;0.30;99.90
63537;DHT22;49686;51.880;5.632;2023-03-12T03:22:51;0.30;99.90
63537;DHT22;49686;51.880;5.632;2023-03-12T03:25:18;0.30;99.90
63537;DHT22;49686;51.880;5.632;2023-03-12T03:27:45;0.30;99.90
63537;DHT22;49686;51.880;5.632;2023-03-12T03:30:11;0.40;99.90
63537;DHT22;49686;51.880;5.632;2023-03-12T03:32:40;0.40;99.90
63537;DHT22;49686;51.880;5.632;2023-03-12T03:35:07;0.30;99.90
63537;DHT22;49686;51.880;5.632;2023-03-12T03:37:34;0.30;99.90
63537;DHT22;49686;51.880;5.632;2023-03-12T03:40:01;0.40;99.90
63537;DHT22;49686;51.880;5.632;2023-03-12T03:42:28;0.50;99.90
63537;DHT22;49686;51.880;5.632;2023-03-12T03:44:54;0.50;99.90
63537;DHT22;49686;51.880;5.632;2023-03-12T03:47:21;0.50;99.90
63537;DHT22;49686;51.880;5.632;2023-03-12T03:49:49;0.40;99.90
63537;DHT22;49686;51.880;5.632;2023-03-12T03:52:16;0.40;99.90
63537;DHT22;49686;51.880;5.632;2023-03-12T03:54:43;0.40;99.90
63537;DHT22;49686;51.880;5.632;2023-03-12T03:57:10;0.40;99.90
63537;DHT22;49686;51.880;5.632;2023-03-12T03:59:37;0.50;99.90
63537;DHT22;49686;51.880;5.632;2023-03-12T04:02:04;0.50;99.90
63537;DHT22;49686;51.880;5.632;2023-03-12T04:04:30;0.50;99.90
63537;DHT22;49686;51.880;5.632;2023-03-12T04:06:59;0.50;99.90
63537;DHT22;49686;51.880;5.632;2023-03-12T04:09:25;0.50;99.90
63537;DHT22;49686;51.880;5.632;2023-03-12T04:11:52;0.40;99.90
63537;DHT22;49686;51.880;5.632;2023-03-12T04:14:19;0.50;99.90
63537;DHT22;49686;51.880;5.632;2023-03-12T04:16:46;0.40;99.90
63537;DHT22;49686;51.880;5.632;2023-03-12T04:19:12;0.30;99.90
63537;DHT22;49686;51.880;5.632;2023-03-12T04:21:39;0.30;99.90
63537;DHT22;49686;51.880;5.632;2023-03-12T04:24:12;0.30;99.90
63537;DHT22;49686;51.880;5.632;2023-03-12T04:26:40;0.20;99.90
63537;DHT22;49686;51.880;5.632;2023-03-12T04:29:06;0.10;99.90
63537;DHT22;49686;51.880;5.632;2023-03-12T04:31:33;0.10;99.90
63537;DHT22;49686;51.880;5.632;2023-03-12T04:34:00;0.10;99.90
63537;DHT22;49686;51.880;5.632;2023-03-12T04:36:27;0.00;99.90
63537;DHT22;49686;51.880;5.632;2023-03-12T04:38:55;0.00;99.90
63537;DHT22;49686;51.880;5.632;2023-03-12T04:41:23;0.00;99.90
63537;DHT22;49686;51.880;5.632;2023-03-12T04:43:50;0.10;99.90
63537;DHT22;49686;51.880;5.632;2023-03-12T04:46:16;0.10;99.90
63537;DHT22;49686;51.880;5.632;2023-03-12T04:48:43;0.20;99.90
63537;DHT22;49686;51.880;5.632;2023-03-12T04:51:10;0.20;99.90
63537;DHT22;49686;51.880;5.632;2023-03-12T04:53:37;0.20;99.90
63537;DHT22;49686;51.880;5.632;2023-03-12T04:56:04;0.20;99.90
63537;DHT22;49686;51.880;5.632;2023-03-12T04:58:33;0.30;99.90
63537;DHT22;49686;51.880;5.632;2023-03-12T05:00:59;0.30;99.90
63537;DHT22;49686;51.880;5.632;2023-03-12T05:03:26;0.30;99.90
63537;DHT22;49686;51.880;5.632;2023-03-12T05:05:53;0.30;99.90
63537;DHT22;49686;51.880;5.632;2023-03-12T05:08:20;0.30;99.90
63537;DHT22;49686;51.880;5.632;2023-03-12T05:10:47;0.30;99.90
63537;DHT22;49686;51.880;5.632;2023-03-12T05:13:15;0.30;99.90
63537;DHT22;49686;51.880;5.632;2023-03-12T05:15:43;0.30;99.90
63537;DHT22;49686;51.880;5.632;2023-03-12T05:18:10;0.30;99.90
63537;DHT22;49686;51.880;5.632;2023-03-12T05:20:37;0.30;99.90
63537;DHT22;49686;51.880;5.632;2023-03-12T05:23:04;0.40;99.90
63537;DHT22;49686;51.880;5.632;2023-03-12T05:25:31;0.40;99.90
63537;DHT22;49686;51.880;5.632;2023-03-12T05:27:58;0.40;99.90
63537;DHT22;49686;51.880;5.632;2023-03-12T05:30:24;0.40;99.90
63537;DHT22;49686;51.880;5.632;2023-03-12T05:32:52;0.40;99.90
63537;DHT22;49686;51.880;5.632;2023-03-12T05:35:19;0.40;99.90
63537;DHT22;49686;51.880;5.632;2023-03-12T05:37:46;0.40;99.90
63537;DHT22;49686;51.880;5.632;2023-03-12T05:40:13;0.40;99.90
63537;DHT22;49686;51.880;5.632;2023-03-12T05:42:40;0.50;99.90
63537;DHT22;49686;51.880;5.632;2023-03-12T05:45:08;0.50;99.90
63537;DHT22;49686;51.880;5.632;2023-03-12T05:47:34;0.50;99.90
63537;DHT22;49686;51.880;5.632;2023-03-12T05:50:03;0.50;99.90
63537;DHT22;49686;51.880;5.632;2023-03-12T05:52:30;0.50;99.90
63537;DHT22;49686;51.880;5.632;2023-03-12T05:54:57;0.50;99.90
63537;DHT22;49686;51.880;5.632;2023-03-12T05:57:24;0.60;99.90
63537;DHT22;49686;51.880;5.632;2023-03-12T05:59:52;0.60;99.90
63537;DHT22;49686;51.880;5.632;2023-03-12T06:02:19;0.60;99.90
63537;DHT22;49686;51.880;5.632;2023-03-12T06:04:46;0.70;99.90
63537;DHT22;49686;51.880;5.632;2023-03-12T06:07:14;0.70;99.90
63537;DHT22;49686;51.880;5.632;2023-03-12T06:09:41;0.70;99.90
63537;DHT22;49686;51.880;5.632;2023-03-12T06:12:08;0.70;99.90
63537;DHT22;49686;51.880;5.632;2023-03-12T06:14:34;0.70;99.90
63537;DHT22;49686;51.880;5.632;2023-03-12T06:17:01;0.70;99.90
63537;DHT22;49686;51.880;5.632;2023-03-12T06:19:28;0.70;99.90
63537;DHT22;49686;51.880;5.632;2023-03-12T06:21:55;0.70;99.90
63537;DHT22;49686;51.880;5.632;2023-03-12T06:24:23;0.70;99.90
63537;DHT22;49686;51.880;5.632;2023-03-12T06:26:50;0.70;99.90
63537;DHT22;49686;51.880;5.632;2023-03-12T06:29:17;0.70;99.90
63537;DHT22;49686;51.880;5.632;2023-03-12T06:31:44;0.70;99.90
63537;DHT22;49686;51.880;5.632;2023-03-12T06:34:11;0.60;99.90
63537;DHT22;49686;51.880;5.632;2023-03-12T06:36:38;0.60;99.90
63537;DHT22;49686;51.880;5.632;2023-03-12T06:39:05;0.60;99.90
63537;DHT22;49686;51.880;5.632;2023-03-12T06:41:33;0.60;99.90
63537;DHT22;49686;51.880;5.632;2023-03-12T06:44:00;0.60;99.90
63537;DHT22;49686;51.880;5.632;2023-03-12T06:46:26;0.60;99.90
63537;DHT22;49686;51.880;5.632;2023-03-12T06:48:53;0.50;99.90
63537;DHT22;49686;51.880;5.632;2023-03-12T06:51:20;0.40;99.90
63537;DHT22;49686;51.880;5.632;2023-03-12T06:53:47;0.40;99.90
63537;DHT22;49686;51.880;5.632;2023-03-12T06:56:14;0.40;99.90
63537;DHT22;49686;51.880;5.632;2023-03-12T06:58:42;0.50;99.90
63537;DHT22;49686;51.880;5.632;2023-03-12T07:01:09;0.50;99.90
63537;DHT22;49686;51.880;5.632;2023-03-12T07:03:36;0.50;99.90
63537;DHT22;49686;51.880;5.632;2023-03-12T07:06:03;0.50;99.90
63537;DHT22;49686;51.880;5.632;2023-03-12T07:08:30;0.50;99.90
63537;DHT22;49686;51.880;5.632;2023-03-12T07:10:58;0.50;99.90
63537;DHT22;49686;51.880;5.632;2023-03-12T07:13:27;0.60;99.90
63537;DHT22;49686;51.880;5.632;2023-03-12T07:15:56;0.60;99.90
63537;DHT22;49686;51.880;5.632;2023-03-12T07:18:23;0.60;99.90
63537;DHT22;49686;51.880;5.632;2023-03-12T07:20:51;0.60;99.90
63537;DHT22;49686;51.880;5.632;2023-03-12T07:23:18;0.60;99.90
63537;DHT22;49686;51.880;5.632;2023-03-12T07:25:45;0.60;99.90
63537;DHT22;49686;51.880;5.632;2023-03-12T07:28:13;0.60;99.90
63537;DHT22;49686;51.880;5.632;2023-03-12T07:30:40;0.60;99.90
63537;DHT22;49686;51.880;5.632;2023-03-12T07:33:10;0.70;99.90
63537;DHT22;49686;51.880;5.632;2023-03-12T07:35:38;0.70;99.90
63537;DHT22;49686;51.880;5.632;2023-03-12T07:38:08;0.60;99.90
63537;DHT22;49686;51.880;5.632;2023-03-12T07:40:35;0.70;99.90
63537;DHT22;49686;51.880;5.632;2023-03-12T07:43:03;0.60;99.90
63537;DHT22;49686;51.880;5.632;2023-03-12T07:45:30;0.70;99.90
63537;DHT22;49686;51.880;5.632;2023-03-12T07:47:57;0.70;99.90
63537;DHT22;49686;51.880;5.632;2023-03-12T07:50:28;0.70;99.90
63537;DHT22;49686;51.880;5.632;2023-03-12T07:52:55;0.70;99.90
63537;DHT22;49686;51.880;5.632;2023-03-12T07:55:21;0.70;99.90
63537;DHT22;49686;51.880;5.632;2023-03-12T07:57:48;0.70;99.90
63537;DHT22;49686;51.880;5.632;2023-03-12T08:00:16;0.80;99.90
63537;DHT22;49686;51.880;5.632;2023-03-12T08:02:43;0.90;99.90
63537;DHT22;49686;51.880;5.632;2023-03-12T08:05:10;0.90;99.90
63537;DHT22;49686;51.880;5.632;2023-03-12T08:07:38;0.90;99.90
63537;DHT22;49686;51.880;5.632;2023-03-12T08:10:07;0.90;99.90
63537;DHT22;49686;51.880;5.632;2023-03-12T08:12:34;1.00;99.90
63537;DHT22;49686;51.880;5.632;2023-03-12T08:15:01;1.00;99.90
63537;DHT22;49686;51.880;5.632;2023-03-12T08:17:27;1.00;99.90
63537;DHT22;49686;51.880;5.632;2023-03-12T08:19:54;1.10;99.90
63537;DHT22;49686;51.880;5.632;2023-03-12T08:22:21;1.10;99.90
63537;DHT22;49686;51.880;5.632;2023-03-12T08:24:50;1.10;99.90
63537;DHT22;49686;51.880;5.632;2023-03-12T08:27:17;1.10;99.90
63537;DHT22;49686;51.880;5.632;2023-03-12T08:29:45;1.20;99.90
63537;DHT22;49686;51.880;5.632;2023-03-12T08:32:13;1.30;99.90
63537;DHT22;49686;51.880;5.632;2023-03-12T08:34:40;1.30;99.90
63537;DHT22;49686;51.880;5.632;2023-03-12T08:37:08;1.40;99.90
63537;DHT22;49686;51.880;5.632;2023-03-12T08:39:35;1.40;99.90
63537;DHT22;49686;51.880;5.632;2023-03-12T08:42:03;1.50;99.90
63537;DHT22;49686;51.880;5.632;2023-03-12T08:44:30;1.60;99.90
63537;DHT22;49686;51.880;5.632;2023-03-12T08:46:56;1.60;99.90
63537;DHT22;49686;51.880;5.632;2023-03-12T08:49:24;1.70;99.90
63537;DHT22;49686;51.880;5.632;2023-03-12T08:51:50;1.70;99.90
63537;DHT22;49686;51.880;5.632;2023-03-12T08:54:18;1.80;99.90
63537;DHT22;49686;51.880;5.632;2023-03-12T08:56:48;1.80;99.90
63537;DHT22;49686;51.880;5.632;2023-03-12T08:59:16;1.90;99.90
63537;DHT22;49686;51.880;5.632;2023-03-12T09:01:43;1.90;99.90
63537;DHT22;49686;51.880;5.632;2023-03-12T09:04:10;2.00;99.90
63537;DHT22;49686;51.880;5.632;2023-03-12T09:06:37;2.00;99.90
63537;DHT22;49686;51.880;5.632;2023-03-12T09:09:04;2.10;99.90
63537;DHT22;49686;51.880;5.632;2023-03-12T09:11:31;2.10;99.90
63537;DHT22;49686;51.880;5.632;2023-03-12T09:13:58;2.10;99.90
63537;DHT22;49686;51.880;5.632;2023-03-12T09:16:47;2.20;99.90
63537;DHT22;49686;51.880;5.632;2023-03-12T09:19:15;2.20;99.90
63537;DHT22;49686;51.880;5.632;2023-03-12T09:21:42;2.30;99.90
63537;DHT22;49686;51.880;5.632;2023-03-12T09:24:09;2.40;99.90
63537;DHT22;49686;51.880;5.632;2023-03-12T09:26:36;2.50;99.90
63537;DHT22;49686;51.880;5.632;2023-03-12T09:29:03;2.50;99.90
63537;DHT22;49686;51.880;5.632;2023-03-12T09:31:30;2.70;99.90
63537;DHT22;49686;51.880;5.632;2023-03-12T09:33:59;2.70;99.90
63537;DHT22;49686;51.880;5.632;2023-03-12T09:36:26;2.80;99.90
63537;DHT22;49686;51.880;5.632;2023-03-12T09:38:53;3.00;99.90
63537;DHT22;49686;51.880;5.632;2023-03-12T09:41:22;3.00;99.90
63537;DHT22;49686;51.880;5.632;2023-03-12T09:43:54;3.10;99.90
63537;DHT22;49686;51.880;5.632;2023-03-12T09:46:25;3.20;99.90
63537;DHT22;49686;51.880;5.632;2023-03-12T09:48:56;3.30;99.90
63537;DHT22;49686;51.880;5.632;2023-03-12T09:51:28;3.40;99.90
63537;DHT22;49686;51.880;5.632;2023-03-12T09:53:58;3.40;99.90
63537;DHT22;49686;51.880;5.632;2023-03-12T09:56:32;3.50;99.90
63537;DHT22;49686;51.880;5.632;2023-03-12T09:59:01;3.60;99.90
63537;DHT22;49686;51.880;5.632;2023-03-12T10:01:35;3.60;99.90
63537;DHT22;49686;51.880;5.632;2023-03-12T10:04:09;3.70;99.90
63537;DHT22;49686;51.880;5.632;2023-03-12T10:06:44;3.70;99.90
63537;DHT22;49686;51.880;5.632;2023-03-12T10:09:27;3.90;99.90
63537;DHT22;49686;51.880;5.632;2023-03-12T10:12:00;3.90;99.90
63537;DHT22;49686;51.880;5.632;2023-03-12T10:14:37;4.00;99.90
63537;DHT22;49686;51.880;5.632;2023-03-12T10:17:21;4.10;99.90
63537;DHT22;49686;51.880;5.632;2023-03-12T10:20:03;4.40;99.90
63537;DHT22;49686;51.880;5.632;2023-03-12T10:22:45;4.50;99.90
63537;DHT22;49686;51.880;5.632;2023-03-12T10:25:21;4.80;99.90
63537;DHT22;49686;51.880;5.632;2023-03-12T10:27:51;5.10;99.90
63537;DHT22;49686;51.880;5.632;2023-03-12T10:30:20;5.10;99.90
63537;DHT22;49686;51.880;5.632;2023-03-12T10:32:49;5.10;99.90
63537;DHT22;49686;51.880;5.632;2023-03-12T10:35:19;5.20;99.90
63537;DHT22;49686;51.880;5.632;2023-03-12T10:37:50;5.40;99.90
63537;DHT22;49686;51.880;5.632;2023-03-12T10:40:21;5.60;99.90
63537;DHT22;49686;51.880;5.632;2023-03-12T10:42:48;5.90;99.90
63537;DHT22;49686;51.880;5.632;2023-03-12T10:45:22;5.90;99.90
63537;DHT22;49686;51.880;5.632;2023-03-12T10:47:54;5.90;99.90
63537;DHT22;49686;51.880;5.632;2023-03-12T10:50:24;6.10;99.90
63537;DHT22;49686;51.880;5.632;2023-03-12T10:53:12;6.00;99.90
63537;DHT22;49686;51.880;5.632;2023-03-12T10:55:39;6.30;99.90
63537;DHT22;49686;51.880;5.632;2023-03-12T10:58:08;6.50;99.90
63537;DHT22;49686;51.880;5.632;2023-03-12T11:00:53;6.60;99.90
63537;DHT22;49686;51.880;5.632;2023-03-12T11:03:21;6.70;99.90
63537;DHT22;49686;51.880;5.632;2023-03-12T11:05:49;6.70;99.90
63537;DHT22;49686;51.880;5.632;2023-03-12T11:08:21;6.80;99.90
63537;DHT22;49686;51.880;5.632;2023-03-12T11:10:48;7.00;99.90
63537;DHT22;49686;51.880;5.632;2023-03-12T11:13:24;7.00;99.90
63537;DHT22;49686;51.880;5.632;2023-03-12T11:15:52;6.90;99.90
63537;DHT22;49686;51.880;5.632;2023-03-12T11:18:28;7.00;99.90
63537;DHT22;49686;51.880;5.632;2023-03-12T11:20:56;7.10;99.90
63537;DHT22;49686;51.880;5.632;2023-03-12T11:23:27;7.20;99.90
63537;DHT22;49686;51.880;5.632;2023-03-12T11:25:57;7.20;99.90
63537;DHT22;49686;51.880;5.632;2023-03-12T11:28:30;7.30;99.90
63537;DHT22;49686;51.880;5.632;2023-03-12T11:30:59;7.30;99.90
63537;DHT22;49686;51.880;5.632;2023-03-12T11:33:26;7.40;99.90
63537;DHT22;49686;51.880;5.632;2023-03-12T11:36:07;7.40;99.90
63537;DHT22;49686;51.880;5.632;2023-03-12T11:38:37;7.40;99.90
63537;DHT22;49686;51.880;5.632;2023-03-12T11:41:20;7.30;99.90
63537;DHT22;49686;51.880;5.632;2023-03-12T11:44:13;7.30;99.90
63537;DHT22;49686;51.880;5.632;2023-03-12T11:46:51;7.30;99.90
63537;DHT22;49686;51.880;5.632;2023-03-12T11:49:30;7.30;99.90
63537;DHT22;49686;51.880;5.632;2023-03-12T11:52:00;7.30;99.90
63537;DHT22;49686;51.880;5.632;2023-03-12T11:57:41;7.50;99.90
63537;DHT22;49686;51.880;5.632;2023-03-12T12:00:13;7.40;99.90
63537;DHT22;49686;51.880;5.632;2023-03-12T12:05:57;7.40;99.90
63537;DHT22;49686;51.880;5.632;2023-03-12T12:08:38;7.50;99.90
63537;DHT22;49686;51.880;5.632;2023-03-12T12:11:13;7.60;99.90
63537;DHT22;49686;51.880;5.632;2023-03-12T12:13:55;7.60;99.90
63537;DHT22;49686;51.880;5.632;2023-03-12T12:16:35;7.70;99.90
63537;DHT22;49686;51.880;5.632;2023-03-12T12:19:17;7.80;99.90
63537;DHT22;49686;51.880;5.632;2023-03-12T12:21:57;7.60;99.90
63537;DHT22;49686;51.880;5.632;2023-03-12T12:24:30;7.50;99.90
63537;DHT22;49686;51.880;5.632;2023-03-12T12:27:07;7.40;99.90
63537;DHT22;49686;51.880;5.632;2023-03-12T12:29:55;7.30;99.90
63537;DHT22;49686;51.880;5.632;2023-03-12T12:32:31;7.20;99.90
63537;DHT22;49686;51.880;5.632;2023-03-12T12:35:12;7.30;99.90
63537;DHT22;49686;51.880;5.632;2023-03-12T12:37:47;7.60;99.90
63537;DHT22;49686;51.880;5.632;2023-03-12T12:40:22;7.60;99.90
63537;DHT22;49686;51.880;5.632;2023-03-12T12:43:01;7.70;99.90
63537;DHT22;49686;51.880;5.632;2023-03-12T12:45:29;7.80;99.90
63537;DHT22;49686;51.880;5.632;2023-03-12T12:48:00;7.60;99.90
63537;DHT22;49686;51.880;5.632;2023-03-12T12:50:31;7.80;99.90
63537;DHT22;49686;51.880;5.632;2023-03-12T12:53:05;8.00;99.90
63537;DHT22;49686;51.880;5.632;2023-03-12T12:55:38;7.90;99.90
63537;DHT22;49686;51.880;5.632;2023-03-12T12:58:11;8.20;99.90
63537;DHT22;49686;51.880;5.632;2023-03-12T13:00:47;8.20;99.90
63537;DHT22;49686;51.880;5.632;2023-03-12T13:03:17;8.20;99.90
63537;DHT22;49686;51.880;5.632;2023-03-12T13:05:56;8.10;99.90
63537;DHT22;49686;51.880;5.632;2023-03-12T13:09:03;8.30;99.90
63537;DHT22;49686;51.880;5.632;2023-03-12T13:11:39;8.10;99.90
63537;DHT22;49686;51.880;5.632;2023-03-12T13:14:36;8.30;99.90
63537;DHT22;49686;51.880;5.632;2023-03-12T13:17:19;8.30;99.90
63537;DHT22;49686;51.880;5.632;2023-03-12T13:19:47;8.40;99.90
63537;DHT22;49686;51.880;5.632;2023-03-12T13:22:30;8.40;99.90
63537;DHT22;49686;51.880;5.632;2023-03-12T13:25:13;8.80;99.90
63537;DHT22;49686;51.880;5.632;2023-03-12T13:27:45;8.60;99.90
63537;DHT22;49686;51.880;5.632;2023-03-12T13:30:46;9.00;99.90
63537;DHT22;49686;51.880;5.632;2023-03-12T13:33:16;9.50;99.90
63537;DHT22;49686;51.880;5.632;2023-03-12T13:36:01;9.20;99.90
63537;DHT22;49686;51.880;5.632;2023-03-12T13:38:36;8.90;99.90
63537;DHT22;49686;51.880;5.632;2023-03-12T13:41:06;9.30;99.90
63537;DHT22;49686;51.880;5.632;2023-03-12T13:43:54;9.10;99.90
63537;DHT22;49686;51.880;5.632;2023-03-12T13:46:28;8.90;99.90
63537;DHT22;49686;51.880;5.632;2023-03-12T13:49:02;9.00;99.90
63537;DHT22;49686;51.880;5.632;2023-03-12T13:51:29;9.00;99.90
63537;DHT22;49686;51.880;5.632;2023-03-12T13:53:58;9.10;99.90
63537;DHT22;49686;51.880;5.632;2023-03-12T13:56:28;9.20;99.90
63537;DHT22;49686;51.880;5.632;2023-03-12T13:58:58;9.20;99.90
63537;DHT22;49686;51.880;5.632;2023-03-12T14:01:28;9.40;99.90
63537;DHT22;49686;51.880;5.632;2023-03-12T14:03:58;9.70;99.90
63537;DHT22;49686;51.880;5.632;2023-03-12T14:06:28;9.90;99.90
63537;DHT22;49686;51.880;5.632;2023-03-12T14:09:06;9.50;99.90
63537;DHT22;49686;51.880;5.632;2023-03-12T14:11:43;9.70;99.90
63537;DHT22;49686;51.880;5.632;2023-03-12T14:14:40;9.60;99.90
63537;DHT22;49686;51.880;5.632;2023-03-12T14:17:15;9.40;99.90
63537;DHT22;49686;51.880;5.632;2023-03-12T14:19:46;9.70;99.90
63537;DHT22;49686;51.880;5.632;2023-03-12T14:22:14;9.60;99.90
63537;DHT22;49686;51.880;5.632;2023-03-12T14:24:48;9.90;99.90
63537;DHT22;49686;51.880;5.632;2023-03-12T14:27:20;9.80;99.90
63537;DHT22;49686;51.880;5.632;2023-03-12T14:29:51;9.80;99.90
63537;DHT22;49686;51.880;5.632;2023-03-12T14:32:22;9.80;99.90
63537;DHT22;49686;51.880;5.632;2023-03-12T14:34:54;9.70;99.90
63537;DHT22;49686;51.880;5.632;2023-03-12T14:37:27;9.20;99.90
63537;DHT22;49686;51.880;5.632;2023-03-12T14:39:57;9.40;99.90
63537;DHT22;49686;51.880;5.632;2023-03-12T14:42:29;9.30;99.90
63537;DHT22;49686;51.880;5.632;2023-03-12T14:44:58;9.40;99.90
63537;DHT22;49686;51.880;5.632;2023-03-12T14:47:26;9.40;99.90
63537;DHT22;49686;51.880;5.632;2023-03-12T14:49:54;9.60;99.90
63537;DHT22;49686;51.880;5.632;2023-03-12T14:52:23;9.60;99.90
63537;DHT22;49686;51.880;5.632;2023-03-12T14:54:52;9.40;99.90
63537;DHT22;49686;51.880;5.632;2023-03-12T14:57:19;9.20;99.90
63537;DHT22;49686;51.880;5.632;2023-03-12T14:59:53;9.10;99.90
63537;DHT22;49686;51.880;5.632;2023-03-12T15:02:21;9.20;99.90
63537;DHT22;49686;51.880;5.632;2023-03-12T15:04:51;9.10;99.90
63537;DHT22;49686;51.880;5.632;2023-03-12T15:07:25;9.00;99.90
63537;DHT22;49686;51.880;5.632;2023-03-12T15:09:53;9.20;99.90
63537;DHT22;49686;51.880;5.632;2023-03-12T15:12:21;9.20;99.90
63537;DHT22;49686;51.880;5.632;2023-03-12T15:14:53;9.30;99.90
63537;DHT22;49686;51.880;5.632;2023-03-12T15:17:23;9.50;99.90
63537;DHT22;49686;51.880;5.632;2023-03-12T15:19:52;9.20;99.90
63537;DHT22;49686;51.880;5.632;2023-03-12T15:22:23;9.20;99.90
63537;DHT22;49686;51.880;5.632;2023-03-12T15:24:50;9.40;99.90
63537;DHT22;49686;51.880;5.632;2023-03-12T15:27:30;9.20;99.90
63537;DHT22;49686;51.880;5.632;2023-03-12T15:30:00;9.30;99.90
63537;DHT22;49686;51.880;5.632;2023-03-12T15:32:27;9.30;99.90
63537;DHT22;49686;51.880;5.632;2023-03-12T15:34:54;9.20;99.90
63537;DHT22;49686;51.880;5.632;2023-03-12T15:37:26;9.00;99.90
63537;DHT22;49686;51.880;5.632;2023-03-12T15:39:54;9.10;99.90
63537;DHT22;49686;51.880;5.632;2023-03-12T15:42:24;9.10;99.90
63537;DHT22;49686;51.880;5.632;2023-03-12T15:44:52;9.00;99.90
63537;DHT22;49686;51.880;5.632;2023-03-12T15:47:21;9.00;99.90
63537;DHT22;49686;51.880;5.632;2023-03-12T15:49:50;8.90;99.90
63537;DHT22;49686;51.880;5.632;2023-03-12T15:52:28;8.80;99.90
63537;DHT22;49686;51.880;5.632;2023-03-12T15:55:05;8.70;99.90
63537;DHT22;49686;51.880;5.632;2023-03-12T15:57:33;8.60;99.90
63537;DHT22;49686;51.880;5.632;2023-03-12T16:00:22;8.60;99.90
63537;DHT22;49686;51.880;5.632;2023-03-12T16:02:53;8.60;99.90
63537;DHT22;49686;51.880;5.632;2023-03-12T16:05:22;8.50;99.90
63537;DHT22;49686;51.880;5.632;2023-03-12T16:07:50;8.50;99.90
63537;DHT22;49686;51.880;5.632;2023-03-12T16:10:18;8.50;99.90